sensor_id;sensor_type;location;lat;lon;timestamp;pressure;altitude;pressure_sealevel;temperature;humidity
59053;BME280;44843;44.728;10.396;2023-02-10T00:02:20;102522.09;;;-0.93;nan
59053;BME280;44843;44.728;10.396;2023-02-10T00:04:46;102522.22;;;-0.87;nan
59053;BME280;44843;44.728;10.396;2023-02-10T00:07:11;102521.44;;;-0.84;nan
59053;BME280;44843;44.728;10.396;2023-02-10T00:09:36;102513.78;;;-0.82;nan
59053;BME280;44843;44.728;10.396;2023-02-10T00:12:02;102513.28;;;-0.66;nan
59053;BME280;44843;44.728;10.396;2023-02-10T00:14:29;102516.84;;;-0.59;nan
59053;BME280;44843;44.728;10.396;2023-02-10T00:16:55;102513.22;;;-0.69;nan
59053;BME280;44843;44.728;10.396;2023-02-10T00:19:23;102512.03;;;-0.85;nan
59053;BME280;44843;44.728;10.396;2023-02-10T00:21:50;102512.31;;;-1.09;nan
59053;BME280;44843;44.728;10.396;2023-02-10T00:24:16;102510.88;;;-0.98;nan
59053;BME280;44843;44.728;10.396;2023-02-10T00:26:41;102512.69;;;-0.94;nan
59053;BME280;44843;44.728;10.396;2023-02-10T00:29:07;102509.22;;;-0.94;nan
59053;BME280;44843;44.728;10.396;2023-02-10T00:31:32;102510.94;;;-0.95;nan
59053;BME280;44843;44.728;10.396;2023-02-10T00:33:58;102508.22;;;-1.02;nan
59053;BME280;44843;44.728;10.396;2023-02-10T00:36:23;102506.25;;;-1.13;nan
59053;BME280;44843;44.728;10.396;2023-02-10T00:38:50;102505.41;;;-1.12;nan
59053;BME280;44843;44.728;10.396;2023-02-10T00:41:17;102511.31;;;-1.14;nan
59053;BME280;44843;44.728;10.396;2023-02-10T00:43:44;102510.25;;;-1.24;nan
59053;BME280;44843;44.728;10.396;2023-02-10T00:46:14;102505.34;;;-1.15;nan
59053;BME280;44843;44.728;10.396;2023-02-10T00:48:40;102501.81;;;-1.20;nan
59053;BME280;44843;44.728;10.396;2023-02-10T00:51:05;102500.38;;;-1.09;nan
59053;BME280;44843;44.728;10.396;2023-02-10T00:53:32;102502.03;;;-1.11;nan
59053;BME280;44843;44.728;10.396;2023-02-10T00:55:57;102493.63;;;-1.05;nan
59053;BME280;44843;44.728;10.396;2023-02-10T00:58:23;102492.84;;;-1.02;nan
59053;BME280;44843;44.728;10.396;2023-02-10T01:00:49;102488.88;;;-0.88;nan
59053;BME280;44843;44.728;10.396;2023-02-10T01:03:14;102485.41;;;-0.92;nan
59053;BME280;44843;44.728;10.396;2023-02-10T01:05:40;102480.44;;;-0.84;nan
59053;BME280;44843;44.728;10.396;2023-02-10T01:08:05;102483.22;;;-1.13;nan
59053;BME280;44843;44.728;10.396;2023-02-10T01:10:34;102485.06;;;-1.07;nan
59053;BME280;44843;44.728;10.396;2023-02-10T01:13:01;102480.59;;;-1.14;nan
59053;BME280;44843;44.728;10.396;2023-02-10T01:15:26;102483.34;;;-1.07;nan
59053;BME280;44843;44.728;10.396;2023-02-10T01:17:52;102477.34;;;-1.09;nan
59053;BME280;44843;44.728;10.396;2023-02-10T01:20:18;102474.53;;;-1.19;nan
59053;BME280;44843;44.728;10.396;2023-02-10T01:22:43;102475.22;;;-1.27;nan
59053;BME280;44843;44.728;10.396;2023-02-10T01:25:09;102475.88;;;-1.34;nan
59053;BME280;44843;44.728;10.396;2023-02-10T01:27:34;102476.94;;;-1.26;nan
59053;BME280;44843;44.728;10.396;2023-02-10T01:29:59;102474.38;;;-1.26;nan
59053;BME280;44843;44.728;10.396;2023-02-10T01:32:25;102469.09;;;-1.32;nan
59053;BME280;44843;44.728;10.396;2023-02-10T01:34:50;102484.13;;;-1.46;nan
59053;BME280;44843;44.728;10.396;2023-02-10T01:37:15;102474.69;;;-1.48;nan
59053;BME280;44843;44.728;10.396;2023-02-10T01:39:41;102475.75;;;-1.40;nan
59053;BME280;44843;44.728;10.396;2023-02-10T01:42:17;102485.09;;;-1.40;nan
59053;BME280;44843;44.728;10.396;2023-02-10T01:47:08;102474.75;;;-1.45;nan
59053;BME280;44843;44.728;10.396;2023-02-10T01:49:40;102473.28;;;-1.35;nan
59053;BME280;44843;44.728;10.396;2023-02-10T01:52:24;102467.59;;;-1.23;nan
59053;BME280;44843;44.728;10.396;2023-02-10T01:55:06;102463.53;;;-1.15;nan
59053;BME280;44843;44.728;10.396;2023-02-10T01:57:33;102465.03;;;-1.23;nan
59053;BME280;44843;44.728;10.396;2023-02-10T02:00:01;102459.25;;;-1.15;nan
59053;BME280;44843;44.728;10.396;2023-02-10T02:02:27;102459.38;;;-1.10;nan
59053;BME280;44843;44.728;10.396;2023-02-10T02:04:54;102457.41;;;-1.22;nan
59053;BME280;44843;44.728;10.396;2023-02-10T02:07:27;102458.19;;;-1.25;nan
59053;BME280;44843;44.728;10.396;2023-02-10T02:09:55;102459.75;;;-1.31;nan
59053;BME280;44843;44.728;10.396;2023-02-10T02:18:02;102458.38;;;-1.52;nan
59053;BME280;44843;44.728;10.396;2023-02-10T02:25:58;102455.66;;;-1.58;nan
59053;BME280;44843;44.728;10.396;2023-02-10T02:33:55;102448.50;;;-1.71;nan
59053;BME280;44843;44.728;10.396;2023-02-10T02:36:29;102441.50;;;-1.78;nan
59053;BME280;44843;44.728;10.396;2023-02-10T02:39:04;102435.81;;;-1.68;nan
59053;BME280;44843;44.728;10.396;2023-02-10T02:41:32;102424.75;;;-1.67;nan
59053;BME280;44843;44.728;10.396;2023-02-10T02:43:58;102428.41;;;-1.57;nan
59053;BME280;44843;44.728;10.396;2023-02-10T02:46:44;102418.06;;;-1.60;nan
59053;BME280;44843;44.728;10.396;2023-02-10T02:52:12;102426.91;;;-1.48;nan
59053;BME280;44843;44.728;10.396;2023-02-10T02:59:55;102425.47;;;-1.73;nan
59053;BME280;44843;44.728;10.396;2023-02-10T03:02:24;102421.00;;;-1.81;nan
59053;BME280;44843;44.728;10.396;2023-02-10T03:04:54;102426.88;;;-1.84;nan
59053;BME280;44843;44.728;10.396;2023-02-10T03:07:20;102420.84;;;-1.86;nan
59053;BME280;44843;44.728;10.396;2023-02-10T03:09:45;102415.59;;;-1.92;nan
59053;BME280;44843;44.728;10.396;2023-02-10T03:12:11;102418.56;;;-1.75;nan
59053;BME280;44843;44.728;10.396;2023-02-10T03:14:38;102406.63;;;-1.76;nan
59053;BME280;44843;44.728;10.396;2023-02-10T03:17:03;102407.69;;;-1.68;nan
59053;BME280;44843;44.728;10.396;2023-02-10T03:19:29;102405.50;;;-1.86;nan
59053;BME280;44843;44.728;10.396;2023-02-10T03:21:54;102413.94;;;-1.90;nan
59053;BME280;44843;44.728;10.396;2023-02-10T03:24:20;102413.09;;;-1.89;nan
59053;BME280;44843;44.728;10.396;2023-02-10T03:26:45;102411.22;;;-1.96;nan
59053;BME280;44843;44.728;10.396;2023-02-10T03:29:12;102413.06;;;-1.91;nan
59053;BME280;44843;44.728;10.396;2023-02-10T03:31:38;102416.53;;;-1.89;nan
59053;BME280;44843;44.728;10.396;2023-02-10T03:34:04;102409.06;;;-1.81;nan
59053;BME280;44843;44.728;10.396;2023-02-10T03:36:29;102412.25;;;-1.88;nan
59053;BME280;44843;44.728;10.396;2023-02-10T03:38:54;102410.75;;;-1.81;nan
59053;BME280;44843;44.728;10.396;2023-02-10T03:41:20;102405.72;;;-1.78;nan
59053;BME280;44843;44.728;10.396;2023-02-10T03:43:45;102404.75;;;-1.83;nan
59053;BME280;44843;44.728;10.396;2023-02-10T03:46:11;102408.00;;;-1.89;nan
59053;BME280;44843;44.728;10.396;2023-02-10T03:48:36;102397.16;;;-2.12;nan
59053;BME280;44843;44.728;10.396;2023-02-10T03:51:04;102404.19;;;-2.05;nan
59053;BME280;44843;44.728;10.396;2023-02-10T03:53:31;102414.47;;;-2.02;nan
59053;BME280;44843;44.728;10.396;2023-02-10T03:55:56;102415.97;;;-2.10;nan
59053;BME280;44843;44.728;10.396;2023-02-10T03:58:22;102409.59;;;-1.93;nan
59053;BME280;44843;44.728;10.396;2023-02-10T04:00:48;102416.34;;;-1.95;nan
59053;BME280;44843;44.728;10.396;2023-02-10T04:03:14;102421.78;;;-1.82;nan
59053;BME280;44843;44.728;10.396;2023-02-10T04:05:39;102415.72;;;-1.86;nan
59053;BME280;44843;44.728;10.396;2023-02-10T04:08:05;102421.72;;;-1.85;nan
59053;BME280;44843;44.728;10.396;2023-02-10T04:10:30;102427.84;;;-2.12;nan
59053;BME280;44843;44.728;10.396;2023-02-10T04:13:01;102426.47;;;-1.99;nan
59053;BME280;44843;44.728;10.396;2023-02-10T04:15:27;102426.69;;;-1.92;nan
59053;BME280;44843;44.728;10.396;2023-02-10T04:17:52;102421.72;;;-1.85;nan
59053;BME280;44843;44.728;10.396;2023-02-10T04:20:18;102428.63;;;-1.83;nan
59053;BME280;44843;44.728;10.396;2023-02-10T04:22:43;102430.00;;;-1.96;nan
59053;BME280;44843;44.728;10.396;2023-02-10T04:25:09;102425.06;;;-1.88;nan
59053;BME280;44843;44.728;10.396;2023-02-10T04:27:34;102426.84;;;-1.85;nan
59053;BME280;44843;44.728;10.396;2023-02-10T04:29:59;102426.16;;;-1.78;nan
59053;BME280;44843;44.728;10.396;2023-02-10T04:32:25;102417.69;;;-1.76;nan
59053;BME280;44843;44.728;10.396;2023-02-10T04:34:52;102415.09;;;-1.77;nan
59053;BME280;44843;44.728;10.396;2023-02-10T04:37:17;102412.44;;;-1.82;nan
59053;BME280;44843;44.728;10.396;2023-02-10T04:39:43;102416.53;;;-1.89;nan
59053;BME280;44843;44.728;10.396;2023-02-10T04:42:08;102422.53;;;-1.87;nan
59053;BME280;44843;44.728;10.396;2023-02-10T04:44:34;102422.94;;;-2.04;nan
59053;BME280;44843;44.728;10.396;2023-02-10T04:46:59;102418.44;;;-2.13;nan
59053;BME280;44843;44.728;10.396;2023-02-10T04:49:25;102426.13;;;-2.13;nan
59053;BME280;44843;44.728;10.396;2023-02-10T04:51:50;102426.16;;;-2.12;nan
59053;BME280;44843;44.728;10.396;2023-02-10T04:54:16;102430.81;;;-1.97;nan
59053;BME280;44843;44.728;10.396;2023-02-10T04:56:41;102424.59;;;-2.07;nan
59053;BME280;44843;44.728;10.396;2023-02-10T04:59:07;102423.78;;;-2.04;nan
59053;BME280;44843;44.728;10.396;2023-02-10T05:01:32;102429.75;;;-2.05;nan
59053;BME280;44843;44.728;10.396;2023-02-10T05:03:58;102431.16;;;-2.16;nan
59053;BME280;44843;44.728;10.396;2023-02-10T05:06:23;102437.94;;;-2.18;nan
59053;BME280;44843;44.728;10.396;2023-02-10T05:08:49;102435.69;;;-2.38;nan
59053;BME280;44843;44.728;10.396;2023-02-10T05:11:15;102431.25;;;-2.43;nan
59053;BME280;44843;44.728;10.396;2023-02-10T05:13:41;102429.50;;;-2.46;nan
59053;BME280;44843;44.728;10.396;2023-02-10T05:16:08;102420.47;;;-2.33;nan
59053;BME280;44843;44.728;10.396;2023-02-10T05:18:34;102420.84;;;-2.19;nan
59053;BME280;44843;44.728;10.396;2023-02-10T05:21:00;102417.91;;;-2.33;nan
59053;BME280;44843;44.728;10.396;2023-02-10T05:23:27;102420.09;;;-2.47;nan
59053;BME280;44843;44.728;10.396;2023-02-10T05:25:53;102423.31;;;-2.22;nan
59053;BME280;44843;44.728;10.396;2023-02-10T05:28:18;102417.44;;;-2.20;nan
59053;BME280;44843;44.728;10.396;2023-02-10T05:30:44;102418.34;;;-2.18;nan
59053;BME280;44843;44.728;10.396;2023-02-10T05:33:09;102423.41;;;-2.19;nan
59053;BME280;44843;44.728;10.396;2023-02-10T05:35:35;102418.09;;;-2.25;nan
59053;BME280;44843;44.728;10.396;2023-02-10T05:38:00;102414.19;;;-2.14;nan
59053;BME280;44843;44.728;10.396;2023-02-10T05:40:29;102413.44;;;-2.09;nan
59053;BME280;44843;44.728;10.396;2023-02-10T05:42:55;102416.00;;;-2.09;nan
59053;BME280;44843;44.728;10.396;2023-02-10T05:45:20;102418.69;;;-2.04;nan
59053;BME280;44843;44.728;10.396;2023-02-10T05:47:46;102421.19;;;-2.07;nan
59053;BME280;44843;44.728;10.396;2023-02-10T05:50:11;102419.19;;;-2.17;nan
59053;BME280;44843;44.728;10.396;2023-02-10T05:52:37;102420.16;;;-2.12;nan
59053;BME280;44843;44.728;10.396;2023-02-10T05:55:02;102422.03;;;-2.07;nan
59053;BME280;44843;44.728;10.396;2023-02-10T05:57:28;102428.69;;;-2.13;nan
59053;BME280;44843;44.728;10.396;2023-02-10T05:59:53;102439.25;;;-1.99;nan
59053;BME280;44843;44.728;10.396;2023-02-10T06:02:19;102438.16;;;-2.09;nan
59053;BME280;44843;44.728;10.396;2023-02-10T06:04:44;102440.88;;;-2.03;nan
59053;BME280;44843;44.728;10.396;2023-02-10T06:07:10;102433.38;;;-1.97;nan
59053;BME280;44843;44.728;10.396;2023-02-10T06:09:35;102447.03;;;-1.96;nan
59053;BME280;44843;44.728;10.396;2023-02-10T06:12:00;102444.25;;;-2.04;nan
59053;BME280;44843;44.728;10.396;2023-02-10T06:14:27;102448.91;;;-2.21;nan
59053;BME280;44843;44.728;10.396;2023-02-10T06:16:52;102456.97;;;-2.37;nan
59053;BME280;44843;44.728;10.396;2023-02-10T06:19:17;102452.28;;;-2.22;nan
59053;BME280;44843;44.728;10.396;2023-02-10T06:21:43;102451.31;;;-2.27;nan
59053;BME280;44843;44.728;10.396;2023-02-10T06:24:08;102456.03;;;-2.41;nan
59053;BME280;44843;44.728;10.396;2023-02-10T06:26:35;102462.47;;;-2.23;nan
59053;BME280;44843;44.728;10.396;2023-02-10T06:29:00;102474.88;;;-2.37;nan
59053;BME280;44843;44.728;10.396;2023-02-10T06:31:25;102473.16;;;-2.38;nan
59053;BME280;44843;44.728;10.396;2023-02-10T06:33:51;102474.34;;;-2.25;nan
59053;BME280;44843;44.728;10.396;2023-02-10T06:36:16;102472.13;;;-2.13;nan
59053;BME280;44843;44.728;10.396;2023-02-10T06:38:42;102477.19;;;-2.16;nan
59053;BME280;44843;44.728;10.396;2023-02-10T06:41:07;102474.47;;;-2.21;nan
59053;BME280;44843;44.728;10.396;2023-02-10T06:43:33;102485.88;;;-2.40;nan
59053;BME280;44843;44.728;10.396;2023-02-10T06:45:58;102480.06;;;-2.34;nan
59053;BME280;44843;44.728;10.396;2023-02-10T06:48:24;102480.47;;;-2.20;nan
59053;BME280;44843;44.728;10.396;2023-02-10T06:50:49;102487.53;;;-2.12;nan
59053;BME280;44843;44.728;10.396;2023-02-10T06:53:15;102483.63;;;-1.99;nan
59053;BME280;44843;44.728;10.396;2023-02-10T06:55:40;102491.34;;;-1.96;nan
59053;BME280;44843;44.728;10.396;2023-02-10T06:58:05;102494.03;;;-1.91;nan
59053;BME280;44843;44.728;10.396;2023-02-10T07:00:31;102491.66;;;-1.52;nan
59053;BME280;44843;44.728;10.396;2023-02-10T07:02:59;102497.09;;;-1.39;nan
59053;BME280;44843;44.728;10.396;2023-02-10T07:05:25;102496.72;;;-1.18;nan
59053;BME280;44843;44.728;10.396;2023-02-10T07:07:50;102498.63;;;-1.10;nan
59053;BME280;44843;44.728;10.396;2023-02-10T07:10:17;102503.53;;;-1.19;nan
59053;BME280;44843;44.728;10.396;2023-02-10T07:12:43;102505.72;;;-0.99;nan
59053;BME280;44843;44.728;10.396;2023-02-10T07:15:09;102501.81;;;-1.20;nan
59053;BME280;44843;44.728;10.396;2023-02-10T07:17:34;102511.97;;;-1.25;nan
59053;BME280;44843;44.728;10.396;2023-02-10T07:20:02;102515.16;;;-1.33;nan
59053;BME280;44843;44.728;10.396;2023-02-10T07:22:27;102519.47;;;-1.31;nan
59053;BME280;44843;44.728;10.396;2023-02-10T07:24:53;102525.78;;;-1.18;nan
59053;BME280;44843;44.728;10.396;2023-02-10T07:27:18;102522.53;;;-1.11;nan
59053;BME280;44843;44.728;10.396;2023-02-10T07:29:44;102522.13;;;-0.90;nan
59053;BME280;44843;44.728;10.396;2023-02-10T07:32:09;102525.59;;;-0.89;nan
59053;BME280;44843;44.728;10.396;2023-02-10T07:34:34;102519.63;;;-0.88;nan
59053;BME280;44843;44.728;10.396;2023-02-10T07:37:00;102521.06;;;-0.63;nan
59053;BME280;44843;44.728;10.396;2023-02-10T07:39:27;102527.91;;;-0.62;nan
59053;BME280;44843;44.728;10.396;2023-02-10T07:41:52;102522.97;;;-0.54;nan
59053;BME280;44843;44.728;10.396;2023-02-10T07:44:18;102531.66;;;-0.48;nan
59053;BME280;44843;44.728;10.396;2023-02-10T07:46:46;102543.09;;;-0.32;nan
59053;BME280;44843;44.728;10.396;2023-02-10T07:49:11;102542.50;;;-0.18;nan
59053;BME280;44843;44.728;10.396;2023-02-10T07:51:37;102554.28;;;0.14;nan
59053;BME280;44843;44.728;10.396;2023-02-10T07:54:02;102560.56;;;0.29;nan
59053;BME280;44843;44.728;10.396;2023-02-10T07:56:28;102559.97;;;0.45;nan
59053;BME280;44843;44.728;10.396;2023-02-10T07:58:53;102562.09;;;0.68;nan
59053;BME280;44843;44.728;10.396;2023-02-10T08:01:18;102563.88;;;0.72;nan
59053;BME280;44843;44.728;10.396;2023-02-10T08:03:44;102568.81;;;0.59;nan
59053;BME280;44843;44.728;10.396;2023-02-10T08:06:09;102567.81;;;0.51;nan
59053;BME280;44843;44.728;10.396;2023-02-10T08:08:35;102572.16;;;0.55;nan
59053;BME280;44843;44.728;10.396;2023-02-10T08:11:04;102578.28;;;0.62;nan
59053;BME280;44843;44.728;10.396;2023-02-10T08:13:29;102583.00;;;0.89;nan
59053;BME280;44843;44.728;10.396;2023-02-10T08:15:55;102579.47;;;0.82;nan
59053;BME280;44843;44.728;10.396;2023-02-10T08:18:20;102580.47;;;0.91;nan
59053;BME280;44843;44.728;10.396;2023-02-10T08:20:45;102581.22;;;0.85;nan
59053;BME280;44843;44.728;10.396;2023-02-10T08:23:14;102585.66;;;0.92;nan
59053;BME280;44843;44.728;10.396;2023-02-10T08:25:40;102589.88;;;0.90;nan
59053;BME280;44843;44.728;10.396;2023-02-10T08:28:05;102594.13;;;0.88;nan
59053;BME280;44843;44.728;10.396;2023-02-10T08:30:31;102591.69;;;0.94;nan
59053;BME280;44843;44.728;10.396;2023-02-10T08:32:57;102594.53;;;1.13;nan
59053;BME280;44843;44.728;10.396;2023-02-10T08:35:23;102586.09;;;1.21;nan
59053;BME280;44843;44.728;10.396;2023-02-10T08:37:48;102585.94;;;1.11;nan
59053;BME280;44843;44.728;10.396;2023-02-10T08:40:14;102584.47;;;1.25;nan
59053;BME280;44843;44.728;10.396;2023-02-10T08:42:39;102591.38;;;1.31;nan
59053;BME280;44843;44.728;10.396;2023-02-10T08:45:05;102593.06;;;1.27;nan
59053;BME280;44843;44.728;10.396;2023-02-10T08:47:30;102596.09;;;1.59;nan
59053;BME280;44843;44.728;10.396;2023-02-10T08:49:55;102602.19;;;1.66;nan
59053;BME280;44843;44.728;10.396;2023-02-10T08:52:22;102605.56;;;1.63;nan
59053;BME280;44843;44.728;10.396;2023-02-10T08:54:48;102616.69;;;1.61;nan
59053;BME280;44843;44.728;10.396;2023-02-10T08:57:13;102621.00;;;1.62;nan
59053;BME280;44843;44.728;10.396;2023-02-10T08:59:38;102621.78;;;1.56;nan
59053;BME280;44843;44.728;10.396;2023-02-10T09:02:04;102621.69;;;1.52;nan
59053;BME280;44843;44.728;10.396;2023-02-10T09:04:29;102628.78;;;1.68;nan
59053;BME280;44843;44.728;10.396;2023-02-10T09:06:54;102621.97;;;1.70;nan
59053;BME280;44843;44.728;10.396;2023-02-10T09:09:22;102621.25;;;1.80;nan
59053;BME280;44843;44.728;10.396;2023-02-10T09:11:50;102618.91;;;1.99;nan
59053;BME280;44843;44.728;10.396;2023-02-10T09:14:16;102617.22;;;2.01;nan
59053;BME280;44843;44.728;10.396;2023-02-10T09:16:41;102625.84;;;2.03;nan
59053;BME280;44843;44.728;10.396;2023-02-10T09:19:08;102633.75;;;2.17;nan
59053;BME280;44843;44.728;10.396;2023-02-10T09:21:33;102635.50;;;2.22;nan
59053;BME280;44843;44.728;10.396;2023-02-10T09:23:58;102645.94;;;2.33;nan
59053;BME280;44843;44.728;10.396;2023-02-10T09:26:24;102636.59;;;2.40;nan
59053;BME280;44843;44.728;10.396;2023-02-10T09:28:49;102638.38;;;2.47;nan
59053;BME280;44843;44.728;10.396;2023-02-10T09:31:15;102634.94;;;2.45;nan
59053;BME280;44843;44.728;10.396;2023-02-10T09:33:42;102640.16;;;2.53;nan
59053;BME280;44843;44.728;10.396;2023-02-10T09:36:11;102638.72;;;2.78;nan
59053;BME280;44843;44.728;10.396;2023-02-10T09:38:37;102634.53;;;2.89;nan
59053;BME280;44843;44.728;10.396;2023-02-10T09:41:22;102630.38;;;3.08;nan
59053;BME280;44843;44.728;10.396;2023-02-10T09:44:06;102634.47;;;2.83;nan
59053;BME280;44843;44.728;10.396;2023-02-10T09:52:28;102639.00;;;3.08;nan
59053;BME280;44843;44.728;10.396;2023-02-10T09:54:55;102639.94;;;3.18;nan
59053;BME280;44843;44.728;10.396;2023-02-10T09:57:35;102643.53;;;3.36;nan
59053;BME280;44843;44.728;10.396;2023-02-10T10:00:03;102648.69;;;3.37;nan
59053;BME280;44843;44.728;10.396;2023-02-10T10:02:45;102640.78;;;3.19;nan
59053;BME280;44843;44.728;10.396;2023-02-10T10:05:36;102634.78;;;3.21;nan
59053;BME280;44843;44.728;10.396;2023-02-10T10:08:04;102641.00;;;3.42;nan
59053;BME280;44843;44.728;10.396;2023-02-10T10:10:38;102649.53;;;3.36;nan
59053;BME280;44843;44.728;10.396;2023-02-10T10:13:13;102642.78;;;3.50;nan
59053;BME280;44843;44.728;10.396;2023-02-10T10:21:28;102639.53;;;3.79;nan
59053;BME280;44843;44.728;10.396;2023-02-10T10:26:39;102649.91;;;3.93;nan
59053;BME280;44843;44.728;10.396;2023-02-10T10:32:16;102639.53;;;3.87;nan
59053;BME280;44843;44.728;10.396;2023-02-10T10:34:54;102643.88;;;3.96;nan
59053;BME280;44843;44.728;10.396;2023-02-10T10:37:22;102636.19;;;3.99;nan
59053;BME280;44843;44.728;10.396;2023-02-10T10:39:52;102637.00;;;3.93;nan
59053;BME280;44843;44.728;10.396;2023-02-10T10:42:25;102631.84;;;3.91;nan
59053;BME280;44843;44.728;10.396;2023-02-10T10:45:00;102624.09;;;3.90;nan
59053;BME280;44843;44.728;10.396;2023-02-10T10:47:42;102622.38;;;3.95;nan
59053;BME280;44843;44.728;10.396;2023-02-10T10:50:14;102627.63;;;4.12;nan
59053;BME280;44843;44.728;10.396;2023-02-10T10:52:41;102629.28;;;3.91;nan
59053;BME280;44843;44.728;10.396;2023-02-10T10:55:30;102612.81;;;3.76;nan
59053;BME280;44843;44.728;10.396;2023-02-10T10:58:01;102613.78;;;3.95;nan
59053;BME280;44843;44.728;10.396;2023-02-10T11:00:28;102614.75;;;4.21;nan
59053;BME280;44843;44.728;10.396;2023-02-10T11:02:58;102615.66;;;4.31;nan
59053;BME280;44843;44.728;10.396;2023-02-10T11:05:28;102604.44;;;4.23;nan
59053;BME280;44843;44.728;10.396;2023-02-10T11:07:56;102606.13;;;4.19;nan
59053;BME280;44843;44.728;10.396;2023-02-10T11:10:37;102608.75;;;4.22;nan
59053;BME280;44843;44.728;10.396;2023-02-10T11:13:04;102609.59;;;4.18;nan
59053;BME280;44843;44.728;10.396;2023-02-10T11:17:57;102606.19;;;4.34;nan
59053;BME280;44843;44.728;10.396;2023-02-10T11:20:24;102598.44;;;4.33;nan
59053;BME280;44843;44.728;10.396;2023-02-10T11:23:11;102598.44;;;4.39;nan
59053;BME280;44843;44.728;10.396;2023-02-10T11:25:37;102597.59;;;4.43;nan
59053;BME280;44843;44.728;10.396;2023-02-10T11:28:05;102598.47;;;4.47;nan
59053;BME280;44843;44.728;10.396;2023-02-10T11:30:35;102598.44;;;4.34;nan
59053;BME280;44843;44.728;10.396;2023-02-10T11:33:01;102598.47;;;4.41;nan
59053;BME280;44843;44.728;10.396;2023-02-10T11:35:29;102600.19;;;4.36;nan
59053;BME280;44843;44.728;10.396;2023-02-10T11:38:07;102595.88;;;4.36;nan
59053;BME280;44843;44.728;10.396;2023-02-10T11:40:53;102594.16;;;4.33;nan
59053;BME280;44843;44.728;10.396;2023-02-10T11:43:23;102588.94;;;4.23;nan
59053;BME280;44843;44.728;10.396;2023-02-10T11:45:53;102574.31;;;4.29;nan
59053;BME280;44843;44.728;10.396;2023-02-10T11:48:22;102582.97;;;4.50;nan
59053;BME280;44843;44.728;10.396;2023-02-10T11:50:48;102574.34;;;4.39;nan
59053;BME280;44843;44.728;10.396;2023-02-10T11:53:28;102570.91;;;4.43;nan
59053;BME280;44843;44.728;10.396;2023-02-10T11:56:07;102565.78;;;4.70;nan
59053;BME280;44843;44.728;10.396;2023-02-10T12:01:41;102568.34;;;4.77;nan
59053;BME280;44843;44.728;10.396;2023-02-10T12:04:18;102564.06;;;4.72;nan
59053;BME280;44843;44.728;10.396;2023-02-10T12:07:00;102562.34;;;4.78;nan
59053;BME280;44843;44.728;10.396;2023-02-10T12:17:31;102550.25;;;4.77;nan
59053;BME280;44843;44.728;10.396;2023-02-10T12:25:56;102548.53;;;4.74;nan
59053;BME280;44843;44.728;10.396;2023-02-10T12:34:11;102519.25;;;4.89;nan
59053;BME280;44843;44.728;10.396;2023-02-10T12:45:00;102507.97;;;5.39;nan
59053;BME280;44843;44.728;10.396;2023-02-10T12:53:00;102501.97;;;5.09;nan
59053;BME280;44843;44.728;10.396;2023-02-10T12:55:48;102500.25;;;5.14;nan
59053;BME280;44843;44.728;10.396;2023-02-10T12:58:20;102489.91;;;5.25;nan
59053;BME280;44843;44.728;10.396;2023-02-10T13:01:04;102488.13;;;5.35;nan
59053;BME280;44843;44.728;10.396;2023-02-10T13:03:32;102490.72;;;5.36;nan
59053;BME280;44843;44.728;10.396;2023-02-10T13:06:31;102483.84;;;5.32;nan
59053;BME280;44843;44.728;10.396;2023-02-10T13:09:39;102484.66;;;5.37;nan
59053;BME280;44843;44.728;10.396;2023-02-10T13:12:21;102481.25;;;5.31;nan
59053;BME280;44843;44.728;10.396;2023-02-10T13:14:50;102482.09;;;5.37;nan
59053;BME280;44843;44.728;10.396;2023-02-10T13:17:17;102487.31;;;5.22;nan
59053;BME280;44843;44.728;10.396;2023-02-10T13:20:07;102479.53;;;5.27;nan
59053;BME280;44843;44.728;10.396;2023-02-10T13:35:48;102470.78;;;5.62;nan
59053;BME280;44843;44.728;10.396;2023-02-10T13:38:17;102474.25;;;5.59;nan
59053;BME280;44843;44.728;10.396;2023-02-10T13:40:49;102465.59;;;5.62;nan
59053;BME280;44843;44.728;10.396;2023-02-10T13:43:34;102468.16;;;5.69;nan
59053;BME280;44843;44.728;10.396;2023-02-10T13:46:00;102474.25;;;5.62;nan
59053;BME280;44843;44.728;10.396;2023-02-10T13:48:34;102467.34;;;5.55;nan
59053;BME280;44843;44.728;10.396;2023-02-10T13:51:01;102463.91;;;5.61;nan
59053;BME280;44843;44.728;10.396;2023-02-10T13:56:13;102463.91;;;5.54;nan
59053;BME280;44843;44.728;10.396;2023-02-10T14:02:18;102459.59;;;5.55;nan
59053;BME280;44843;44.728;10.396;2023-02-10T14:06:45;102460.50;;;5.49;nan
59053;BME280;44843;44.728;10.396;2023-02-10T14:11:54;102455.25;;;5.62;nan
59053;BME280;44843;44.728;10.396;2023-02-10T14:14:39;102456.94;;;5.72;nan
59053;BME280;44843;44.728;10.396;2023-02-10T14:19:47;102453.34;;;6.02;nan
59053;BME280;44843;44.728;10.396;2023-02-10T14:22:31;102454.19;;;6.04;nan
59053;BME280;44843;44.728;10.396;2023-02-10T14:25:02;102448.91;;;6.21;nan
59053;BME280;44843;44.728;10.396;2023-02-10T14:27:30;102450.72;;;6.05;nan
59053;BME280;44843;44.728;10.396;2023-02-10T14:30:03;102444.78;;;5.83;nan
59053;BME280;44843;44.728;10.396;2023-02-10T14:32:30;102444.75;;;5.88;nan
59053;BME280;44843;44.728;10.396;2023-02-10T14:35:01;102442.28;;;5.71;nan
59053;BME280;44843;44.728;10.396;2023-02-10T14:37:28;102439.59;;;5.83;nan
59053;BME280;44843;44.728;10.396;2023-02-10T14:39:59;102439.63;;;5.80;nan
59053;BME280;44843;44.728;10.396;2023-02-10T14:42:30;102442.25;;;5.75;nan
59053;BME280;44843;44.728;10.396;2023-02-10T14:45:00;102443.16;;;5.67;nan
59053;BME280;44843;44.728;10.396;2023-02-10T14:47:34;102438.00;;;5.62;nan
59053;BME280;44843;44.728;10.396;2023-02-10T14:50:03;102438.88;;;5.61;nan
59053;BME280;44843;44.728;10.396;2023-02-10T14:52:32;102435.38;;;5.68;nan
59053;BME280;44843;44.728;10.396;2023-02-10T14:54:58;102436.25;;;5.66;nan
59053;BME280;44843;44.728;10.396;2023-02-10T14:57:24;102426.78;;;5.63;nan
59053;BME280;44843;44.728;10.396;2023-02-10T14:59:58;102438.78;;;5.75;nan
59053;BME280;44843;44.728;10.396;2023-02-10T15:02:26;102431.06;;;5.69;nan